Atalaya, Peru
Current Conditions -  °F | °C
As of 6:00 PM on Wednesday 17 Dec 2014 (Local Time) from SPHO Reporting Station
Thunderstorm Thunderstorm  
Wind Chill: 68°   Ceiling: 4600
Heat Index: 68°   Visibility: 4mi
Dew Point: 50°   Wind: 10mph
Humidity: 52%   Direction: 60°ENE
Pressure: 30.21"   Gusts: NA
Location:  10.74°S, 73.76°W
Report Text: SPHO 172300Z 06009KT 030V090 7000 VCTS RA BKN046TCU OVC100 20/10 Q1023 RMK PP000
Loading
Personal Weather Stations






























Interactive Weather Map New forecast layout! Learn more

10-Day Weather Forecast

Advertisements
Track Severe Weather on mobile